sensor_id;sensor_type;location;lat;lon;timestamp;pressure;altitude;pressure_sealevel;temperature;humidity
60489;BME280;46331;49.252;8.904;2023-11-19T00:00:23;99659.38;;;7.35;100.00
60489;BME280;46331;49.252;8.904;2023-11-19T00:01:04;99654.25;;;7.40;100.00
60489;BME280;46331;49.252;8.904;2023-11-19T00:01:45;99654.03;;;7.42;100.00
60489;BME280;46331;49.252;8.904;2023-11-19T00:02:27;99652.56;;;7.46;100.00
60489;BME280;46331;49.252;8.904;2023-11-19T00:03:08;99653.97;;;7.48;100.00
60489;BME280;46331;49.252;8.904;2023-11-19T00:03:48;99650.09;;;7.51;100.00
60489;BME280;46331;49.252;8.904;2023-11-19T00:04:29;99644.38;;;7.54;100.00
60489;BME280;46331;49.252;8.904;2023-11-19T00:05:11;99646.78;;;7.56;100.00
60489;BME280;46331;49.252;8.904;2023-11-19T00:05:51;99645.34;;;7.60;100.00
60489;BME280;46331;49.252;8.904;2023-11-19T00:06:32;99645.13;;;7.61;100.00
60489;BME280;46331;49.252;8.904;2023-11-19T00:07:13;99637.63;;;7.58;100.00
60489;BME280;46331;49.252;8.904;2023-11-19T00:07:54;99645.34;;;7.60;100.00
60489;BME280;46331;49.252;8.904;2023-11-19T00:08:35;99636.59;;;7.59;100.00
60489;BME280;46331;49.252;8.904;2023-11-19T00:09:16;99651.19;;;7.62;100.00
60489;BME280;46331;49.252;8.904;2023-11-19T00:09:58;99648.13;;;7.65;100.00
60489;BME280;46331;49.252;8.904;2023-11-19T00:10:39;99648.13;;;7.65;100.00
60489;BME280;46331;49.252;8.904;2023-11-19T00:11:20;99648.56;;;7.62;100.00
60489;BME280;46331;49.252;8.904;2023-11-19T00:12:01;99646.72;;;7.62;100.00
60489;BME280;46331;49.252;8.904;2023-11-19T00:12:43;99643.06;;;7.63;100.00
60489;BME280;46331;49.252;8.904;2023-11-19T00:13:24;99641.72;;;7.54;100.00
60489;BME280;46331;49.252;8.904;2023-11-19T00:14:06;99646.34;;;7.59;100.00
60489;BME280;46331;49.252;8.904;2023-11-19T00:14:48;99645.69;;;7.63;100.00
60489;BME280;46331;49.252;8.904;2023-11-19T00:15:29;99641.44;;;7.62;100.00
60489;BME280;46331;49.252;8.904;2023-11-19T00:16:10;99648.56;;;7.62;100.00
60489;BME280;46331;49.252;8.904;2023-11-19T00:16:50;99648.56;;;7.62;100.00
60489;BME280;46331;49.252;8.904;2023-11-19T00:17:31;99648.13;;;7.65;100.00
60489;BME280;46331;49.252;8.904;2023-11-19T00:18:12;99642.84;;;7.65;100.00
60489;BME280;46331;49.252;8.904;2023-11-19T00:18:52;99633.91;;;7.66;100.00
60489;BME280;46331;49.252;8.904;2023-11-19T00:19:33;99645.03;;;7.68;100.00
60489;BME280;46331;49.252;8.904;2023-11-19T00:20:15;99641.81;;;7.66;100.00
60489;BME280;46331;49.252;8.904;2023-11-19T00:20:56;99639.84;;;7.61;100.00
60489;BME280;46331;49.252;8.904;2023-11-19T00:21:36;99642.09;;;7.58;100.00
60489;BME280;46331;49.252;8.904;2023-11-19T00:22:17;99637.69;;;7.51;100.00
60489;BME280;46331;49.252;8.904;2023-11-19T00:22:58;99646.22;;;7.54;100.00
60489;BME280;46331;49.252;8.904;2023-11-19T00:23:38;99635.78;;;7.59;100.00
60489;BME280;46331;49.252;8.904;2023-11-19T00:24:19;99637.19;;;7.61;100.00
60489;BME280;46331;49.252;8.904;2023-11-19T00:25:00;99637.19;;;7.61;100.00
60489;BME280;46331;49.252;8.904;2023-11-19T00:25:41;99632.72;;;7.62;100.00
60489;BME280;46331;49.252;8.904;2023-11-19T00:26:21;99636.16;;;7.62;100.00
60489;BME280;46331;49.252;8.904;2023-11-19T00:27:06;99627.44;;;7.62;100.00
60489;BME280;46331;49.252;8.904;2023-11-19T00:27:48;99623.78;;;7.63;100.00
60489;BME280;46331;49.252;8.904;2023-11-19T00:28:28;99631.09;;;7.61;100.00
60489;BME280;46331;49.252;8.904;2023-11-19T00:29:10;99622.16;;;7.62;100.00
60489;BME280;46331;49.252;8.904;2023-11-19T00:29:50;99625.38;;;7.64;100.00
60489;BME280;46331;49.252;8.904;2023-11-19T00:30:31;99624.66;;;7.57;100.00
60489;BME280;46331;49.252;8.904;2023-11-19T00:31:11;99612.25;;;7.57;100.00
60489;BME280;46331;49.252;8.904;2023-11-19T00:31:52;99612.03;;;7.59;100.00
60489;BME280;46331;49.252;8.904;2023-11-19T00:32:33;99613.88;;;7.58;100.00
60489;BME280;46331;49.252;8.904;2023-11-19T00:33:14;99616.13;;;7.55;100.00
60489;BME280;46331;49.252;8.904;2023-11-19T00:33:55;99608.09;;;7.49;100.00
60489;BME280;46331;49.252;8.904;2023-11-19T00:34:35;99600.81;;;7.45;100.00
60489;BME280;46331;49.252;8.904;2023-11-19T00:35:16;99606.03;;;7.51;100.00
60489;BME280;46331;49.252;8.904;2023-11-19T00:35:57;99600.59;;;7.46;100.00
60489;BME280;46331;49.252;8.904;2023-11-19T00:36:37;99597.97;;;7.46;100.00
60489;BME280;46331;49.252;8.904;2023-11-19T00:37:18;99595.56;;;7.45;100.00
60489;BME280;46331;49.252;8.904;2023-11-19T00:37:58;99594.97;;;7.43;100.00
60489;BME280;46331;49.252;8.904;2023-11-19T00:38:39;99594.16;;;7.42;100.00
60489;BME280;46331;49.252;8.904;2023-11-19T00:39:20;99597.84;;;7.41;100.00
60489;BME280;46331;49.252;8.904;2023-11-19T00:40:02;99598.06;;;7.40;100.00
60489;BME280;46331;49.252;8.904;2023-11-19T00:40:45;99608.44;;;7.34;100.00
60489;BME280;46331;49.252;8.904;2023-11-19T00:41:26;99606.63;;;7.35;100.00
60489;BME280;46331;49.252;8.904;2023-11-19T00:42:07;99601.69;;;7.39;100.00
60489;BME280;46331;49.252;8.904;2023-11-19T00:42:48;99603.53;;;7.38;100.00
60489;BME280;46331;49.252;8.904;2023-11-19T00:43:28;99602.13;;;7.36;100.00
60489;BME280;46331;49.252;8.904;2023-11-19T00:44:09;99606.97;;;7.39;100.00
60489;BME280;46331;49.252;8.904;2023-11-19T00:44:52;99606.09;;;7.45;100.00
60489;BME280;46331;49.252;8.904;2023-11-19T00:45:33;99597.19;;;7.46;100.00
60489;BME280;46331;49.252;8.904;2023-11-19T00:46:14;99593.72;;;7.45;100.00
60489;BME280;46331;49.252;8.904;2023-11-19T00:46:54;99583.75;;;7.47;100.00
60489;BME280;46331;49.252;8.904;2023-11-19T00:47:35;99586.19;;;7.49;100.00
60489;BME280;46331;49.252;8.904;2023-11-19T00:48:16;99586.19;;;7.49;100.00
60489;BME280;46331;49.252;8.904;2023-11-19T00:48:57;99590.19;;;7.51;100.00
60489;BME280;46331;49.252;8.904;2023-11-19T00:49:39;99592.03;;;7.51;100.00
60489;BME280;46331;49.252;8.904;2023-11-19T00:50:20;99593.44;;;7.54;100.00
60489;BME280;46331;49.252;8.904;2023-11-19T00:51:01;99596.66;;;7.56;100.00
60489;BME280;46331;49.252;8.904;2023-11-19T00:51:41;99594.59;;;7.58;100.00
60489;BME280;46331;49.252;8.904;2023-11-19T00:52:22;99590.94;;;7.59;100.00
60489;BME280;46331;49.252;8.904;2023-11-19T00:53:02;99596.22;;;7.59;100.00
60489;BME280;46331;49.252;8.904;2023-11-19T00:53:44;99587.06;;;7.61;100.00
60489;BME280;46331;49.252;8.904;2023-11-19T00:54:25;99591.94;;;7.58;100.00
60489;BME280;46331;49.252;8.904;2023-11-19T00:55:06;99591.38;;;7.56;100.00
60489;BME280;46331;49.252;8.904;2023-11-19T00:55:47;99582.22;;;7.58;100.00
60489;BME280;46331;49.252;8.904;2023-11-19T00:56:28;99583.00;;;7.59;100.00
60489;BME280;46331;49.252;8.904;2023-11-19T00:57:09;99578.31;;;7.61;100.00
60489;BME280;46331;49.252;8.904;2023-11-19T00:57:49;99588.88;;;7.61;100.00
60489;BME280;46331;49.252;8.904;2023-11-19T00:58:30;99578.09;;;7.62;100.00
60489;BME280;46331;49.252;8.904;2023-11-19T00:59:11;99576.84;;;7.65;100.00
60489;BME280;46331;49.252;8.904;2023-11-19T00:59:52;99579.06;;;7.68;100.00
60489;BME280;46331;49.252;8.904;2023-11-19T01:00:32;99571.94;;;7.68;100.00
60489;BME280;46331;49.252;8.904;2023-11-19T01:01:13;99579.63;;;7.70;100.00
60489;BME280;46331;49.252;8.904;2023-11-19T01:01:54;99582.25;;;7.70;100.00
60489;BME280;46331;49.252;8.904;2023-11-19T01:02:36;99586.53;;;7.71;100.00
60489;BME280;46331;49.252;8.904;2023-11-19T01:03:17;99584.78;;;7.65;100.00
60489;BME280;46331;49.252;8.904;2023-11-19T01:03:58;99582.56;;;7.62;100.00
60489;BME280;46331;49.252;8.904;2023-11-19T01:04:39;99580.16;;;7.60;100.00
60489;BME280;46331;49.252;8.904;2023-11-19T01:05:20;99591.06;;;7.64;100.00
60489;BME280;46331;49.252;8.904;2023-11-19T01:06:03;99593.13;;;7.62;100.00
60489;BME280;46331;49.252;8.904;2023-11-19T01:06:43;99589.69;;;7.61;100.00
60489;BME280;46331;49.252;8.904;2023-11-19T01:07:24;99596.00;;;7.60;100.00
60489;BME280;46331;49.252;8.904;2023-11-19T01:08:06;99594.97;;;7.61;100.00
60489;BME280;46331;49.252;8.904;2023-11-19T01:08:48;99595.31;;;7.65;100.00
60489;BME280;46331;49.252;8.904;2023-11-19T01:09:28;99597.75;;;7.66;100.00
60489;BME280;46331;49.252;8.904;2023-11-19T01:10:09;99593.25;;;7.67;100.00
60489;BME280;46331;49.252;8.904;2023-11-19T01:10:50;99590.41;;;7.68;100.00
60489;BME280;46331;49.252;8.904;2023-11-19T01:11:31;99591.00;;;7.70;100.00
60489;BME280;46331;49.252;8.904;2023-11-19T01:12:11;99585.94;;;7.69;100.00
60489;BME280;46331;49.252;8.904;2023-11-19T01:12:52;99596.88;;;7.73;100.00
60489;BME280;46331;49.252;8.904;2023-11-19T01:13:33;99595.84;;;7.74;100.00
60489;BME280;46331;49.252;8.904;2023-11-19T01:14:14;99591.59;;;7.73;100.00
60489;BME280;46331;49.252;8.904;2023-11-19T01:14:54;99597.75;;;7.66;100.00
60489;BME280;46331;49.252;8.904;2023-11-19T01:15:36;99599.50;;;7.73;100.00
60489;BME280;46331;49.252;8.904;2023-11-19T01:16:18;99603.75;;;7.74;100.00
60489;BME280;46331;49.252;8.904;2023-11-19T01:16:59;99602.13;;;7.73;100.00
60489;BME280;46331;49.252;8.904;2023-11-19T01:17:41;99598.09;;;7.70;100.00
60489;BME280;46331;49.252;8.904;2023-11-19T01:18:21;99601.78;;;7.69;100.00
60489;BME280;46331;49.252;8.904;2023-11-19T01:19:02;99606.69;;;7.65;100.00
60489;BME280;46331;49.252;8.904;2023-11-19T01:19:45;99600.97;;;7.68;100.00
60489;BME280;46331;49.252;8.904;2023-11-19T01:20:25;99600.97;;;7.68;100.00
60489;BME280;46331;49.252;8.904;2023-11-19T01:21:07;99602.59;;;7.69;100.00
60489;BME280;46331;49.252;8.904;2023-11-19T01:21:48;99605.78;;;7.72;100.00
60489;BME280;46331;49.252;8.904;2023-11-19T01:22:28;99595.25;;;7.72;100.00
60489;BME280;46331;49.252;8.904;2023-11-19T01:23:09;99600.91;;;7.75;100.00
60489;BME280;46331;49.252;8.904;2023-11-19T01:23:50;99599.84;;;7.76;100.00
60489;BME280;46331;49.252;8.904;2023-11-19T01:24:30;99595.84;;;7.74;100.00
60489;BME280;46331;49.252;8.904;2023-11-19T01:25:11;99598.47;;;7.74;100.00
60489;BME280;46331;49.252;8.904;2023-11-19T01:25:52;99587.25;;;7.78;100.00
60489;BME280;46331;49.252;8.904;2023-11-19T01:26:32;99592.31;;;7.80;100.00
60489;BME280;46331;49.252;8.904;2023-11-19T01:27:13;99587.03;;;7.80;100.00
60489;BME280;46331;49.252;8.904;2023-11-19T01:27:54;99584.25;;;7.75;100.00
60489;BME280;46331;49.252;8.904;2023-11-19T01:28:34;99581.38;;;7.76;100.00
60489;BME280;46331;49.252;8.904;2023-11-19T01:29:15;99580.94;;;7.79;100.00
60489;BME280;46331;49.252;8.904;2023-11-19T01:29:56;99577.72;;;7.77;100.00
60489;BME280;46331;49.252;8.904;2023-11-19T01:30:36;99567.97;;;7.78;100.00
60489;BME280;46331;49.252;8.904;2023-11-19T01:31:17;99566.72;;;7.80;100.00
60489;BME280;46331;49.252;8.904;2023-11-19T01:31:58;99571.66;;;7.77;100.00
60489;BME280;46331;49.252;8.904;2023-11-19T01:32:39;99575.53;;;7.74;100.00
60489;BME280;46331;49.252;8.904;2023-11-19T01:33:20;99578.47;;;7.66;100.00
60489;BME280;46331;49.252;8.904;2023-11-19T01:34:01;99582.94;;;7.65;100.00
60489;BME280;46331;49.252;8.904;2023-11-19T01:34:42;99587.63;;;7.63;100.00
60489;BME280;46331;49.252;8.904;2023-11-19T01:35:23;99582.94;;;7.65;100.00
60489;BME280;46331;49.252;8.904;2023-11-19T01:36:04;99579.50;;;7.65;100.00
60489;BME280;46331;49.252;8.904;2023-11-19T01:36:46;99585.94;;;7.69;100.00
60489;BME280;46331;49.252;8.904;2023-11-19T01:37:27;99583.09;;;7.70;100.00
60489;BME280;46331;49.252;8.904;2023-11-19T01:38:07;99585.94;;;7.69;100.00
60489;BME280;46331;49.252;8.904;2023-11-19T01:38:51;99587.31;;;7.72;100.00
60489;BME280;46331;49.252;8.904;2023-11-19T01:39:31;99586.88;;;7.75;100.00
60489;BME280;46331;49.252;8.904;2023-11-19T01:40:12;99578.50;;;7.78;100.00
60489;BME280;46331;49.252;8.904;2023-11-19T01:40:56;99591.94;;;7.76;100.00
60489;BME280;46331;49.252;8.904;2023-11-19T01:41:37;99587.53;;;7.70;100.00
60489;BME280;46331;49.252;8.904;2023-11-19T01:42:19;99586.84;;;7.63;100.00
60489;BME280;46331;49.252;8.904;2023-11-19T01:42:59;99579.13;;;7.61;100.00
60489;BME280;46331;49.252;8.904;2023-11-19T01:43:40;99582.50;;;7.68;100.00
60489;BME280;46331;49.252;8.904;2023-11-19T01:44:23;99583.53;;;7.67;100.00
60489;BME280;46331;49.252;8.904;2023-11-19T01:45:04;99583.75;;;7.66;100.00
60489;BME280;46331;49.252;8.904;2023-11-19T01:45:47;99583.16;;;7.64;100.00
60489;BME280;46331;49.252;8.904;2023-11-19T01:46:31;99587.84;;;7.62;100.00
60489;BME280;46331;49.252;8.904;2023-11-19T01:47:13;99590.06;;;7.65;100.00
60489;BME280;46331;49.252;8.904;2023-11-19T01:47:55;99582.94;;;7.65;100.00
60489;BME280;46331;49.252;8.904;2023-11-19T01:48:38;99584.78;;;7.65;100.00
60489;BME280;46331;49.252;8.904;2023-11-19T01:49:21;99592.69;;;7.65;100.00
60489;BME280;46331;49.252;8.904;2023-11-19T01:50:02;99596.34;;;7.64;100.00
60489;BME280;46331;49.252;8.904;2023-11-19T01:50:47;99592.47;;;7.66;100.00
60489;BME280;46331;49.252;8.904;2023-11-19T01:51:28;99592.81;;;7.70;100.00
60489;BME280;46331;49.252;8.904;2023-11-19T01:52:09;99587.53;;;7.70;100.00
60489;BME280;46331;49.252;8.904;2023-11-19T01:52:50;99582.03;;;7.72;100.00
60489;BME280;46331;49.252;8.904;2023-11-19T01:53:34;99586.97;;;7.68;100.00
60489;BME280;46331;49.252;8.904;2023-11-19T01:54:15;99584.91;;;7.70;100.00
60489;BME280;46331;49.252;8.904;2023-11-19T01:54:56;99580.06;;;7.67;100.00
60489;BME280;46331;49.252;8.904;2023-11-19T01:55:36;99581.47;;;7.69;100.00
60489;BME280;46331;49.252;8.904;2023-11-19T01:56:17;99584.47;;;7.73;100.00
60489;BME280;46331;49.252;8.904;2023-11-19T01:56:58;99579.41;;;7.72;100.00
60489;BME280;46331;49.252;8.904;2023-11-19T01:57:39;99583.31;;;7.69;100.00
60489;BME280;46331;49.252;8.904;2023-11-19T01:58:22;99593.03;;;7.68;100.00
60489;BME280;46331;49.252;8.904;2023-11-19T01:59:03;99588.38;;;7.70;100.00
60489;BME280;46331;49.252;8.904;2023-11-19T01:59:44;99591.22;;;7.69;100.00
60489;BME280;46331;49.252;8.904;2023-11-19T02:00:25;99593.25;;;7.67;100.00
60489;BME280;46331;49.252;8.904;2023-11-19T02:01:06;99591.38;;;7.74;100.00
60489;BME280;46331;49.252;8.904;2023-11-19T02:01:48;99586.41;;;7.66;100.00
60489;BME280;46331;49.252;8.904;2023-11-19T02:02:29;99582.88;;;7.72;100.00
60489;BME280;46331;49.252;8.904;2023-11-19T02:03:10;99587.97;;;7.67;100.00
60489;BME280;46331;49.252;8.904;2023-11-19T02:03:52;99594.88;;;7.68;100.00
60489;BME280;46331;49.252;8.904;2023-11-19T02:04:33;99579.84;;;7.68;100.00
60489;BME280;46331;49.252;8.904;2023-11-19T02:05:15;99576.75;;;7.72;100.00
60489;BME280;46331;49.252;8.904;2023-11-19T02:05:56;99577.81;;;7.70;100.00
60489;BME280;46331;49.252;8.904;2023-11-19T02:06:40;99582.66;;;7.74;100.00
60489;BME280;46331;49.252;8.904;2023-11-19T02:07:24;99579.78;;;7.75;100.00
60489;BME280;46331;49.252;8.904;2023-11-19T02:08:05;99575.31;;;7.76;100.00
60489;BME280;46331;49.252;8.904;2023-11-19T02:08:46;99574.06;;;7.78;100.00
60489;BME280;46331;49.252;8.904;2023-11-19T02:09:27;99579.91;;;7.80;100.00
60489;BME280;46331;49.252;8.904;2023-11-19T02:10:08;99580.72;;;7.81;100.00
60489;BME280;46331;49.252;8.904;2023-11-19T02:10:53;99576.53;;;7.73;100.00
60489;BME280;46331;49.252;8.904;2023-11-19T02:11:40;99574.50;;;7.75;100.00
60489;BME280;46331;49.252;8.904;2023-11-19T02:12:20;99573.91;;;7.73;100.00
60489;BME280;46331;49.252;8.904;2023-11-19T02:13:01;99572.97;;;7.67;100.00
60489;BME280;46331;49.252;8.904;2023-11-19T02:13:43;99570.47;;;7.73;100.00
60489;BME280;46331;49.252;8.904;2023-11-19T02:14:25;99567.81;;;7.73;100.00
60489;BME280;46331;49.252;8.904;2023-11-19T02:15:07;99567.81;;;7.73;100.00
60489;BME280;46331;49.252;8.904;2023-11-19T02:15:47;99574.56;;;7.68;100.00
60489;BME280;46331;49.252;8.904;2023-11-19T02:16:28;99574.94;;;7.72;100.00
60489;BME280;46331;49.252;8.904;2023-11-19T02:17:33;99576.09;;;7.76;100.00
60489;BME280;46331;49.252;8.904;2023-11-19T02:18:22;99582.19;;;7.77;100.00
60489;BME280;46331;49.252;8.904;2023-11-19T02:19:03;99585.63;;;7.77;100.00
60489;BME280;46331;49.252;8.904;2023-11-19T02:19:44;99580.13;;;7.79;100.00
60489;BME280;46331;49.252;8.904;2023-11-19T02:20:24;99580.94;;;7.79;100.00
60489;BME280;46331;49.252;8.904;2023-11-19T02:21:06;99577.50;;;7.79;100.00
60489;BME280;46331;49.252;8.904;2023-11-19T02:21:47;99563.28;;;7.80;100.00
60489;BME280;46331;49.252;8.904;2023-11-19T02:22:27;99566.50;;;7.82;100.00
60489;BME280;46331;49.252;8.904;2023-11-19T02:23:08;99547.00;;;7.83;100.00
60489;BME280;46331;49.252;8.904;2023-11-19T02:23:49;99551.22;;;7.84;100.00
60489;BME280;46331;49.252;8.904;2023-11-19T02:24:31;99548.38;;;7.85;100.00
60489;BME280;46331;49.252;8.904;2023-11-19T02:25:19;99549.63;;;7.83;100.00
60489;BME280;46331;49.252;8.904;2023-11-19T02:26:26;99544.19;;;7.78;100.00
60489;BME280;46331;49.252;8.904;2023-11-19T02:27:16;99543.28;;;7.72;100.00
60489;BME280;46331;49.252;8.904;2023-11-19T02:28:01;99544.59;;;7.63;100.00
60489;BME280;46331;49.252;8.904;2023-11-19T02:28:42;99544.59;;;7.63;100.00
60489;BME280;46331;49.252;8.904;2023-11-19T02:29:23;99540.69;;;7.65;100.00
60489;BME280;46331;49.252;8.904;2023-11-19T02:30:04;99541.38;;;7.61;100.00
60489;BME280;46331;49.252;8.904;2023-11-19T02:30:48;99544.59;;;7.63;100.00
60489;BME280;46331;49.252;8.904;2023-11-19T02:31:29;99547.81;;;7.65;100.00
60489;BME280;46331;49.252;8.904;2023-11-19T02:32:09;99551.22;;;7.54;100.00
60489;BME280;46331;49.252;8.904;2023-11-19T02:32:50;99546.50;;;7.56;100.00
60489;BME280;46331;49.252;8.904;2023-11-19T02:33:30;99555.09;;;7.51;100.00
60489;BME280;46331;49.252;8.904;2023-11-19T02:34:11;99552.81;;;7.55;100.00
60489;BME280;46331;49.252;8.904;2023-11-19T02:34:53;99558.97;;;7.48;100.00
60489;BME280;46331;49.252;8.904;2023-11-19T02:35:33;99557.72;;;7.51;100.00
60489;BME280;46331;49.252;8.904;2023-11-19T02:36:14;99554.22;;;7.57;100.00
60489;BME280;46331;49.252;8.904;2023-11-19T02:36:54;99552.97;;;7.60;100.00
60489;BME280;46331;49.252;8.904;2023-11-19T02:37:35;99560.72;;;7.55;100.00
60489;BME280;46331;49.252;8.904;2023-11-19T02:38:15;99555.22;;;7.56;100.00
60489;BME280;46331;49.252;8.904;2023-11-19T02:38:56;99561.31;;;7.57;100.00
60489;BME280;46331;49.252;8.904;2023-11-19T02:39:36;99561.09;;;7.58;100.00
60489;BME280;46331;49.252;8.904;2023-11-19T02:40:17;99563.97;;;7.57;100.00
60489;BME280;46331;49.252;8.904;2023-11-19T02:40:59;99564.97;;;7.56;100.00
60489;BME280;46331;49.252;8.904;2023-11-19T02:41:39;99558.53;;;7.51;100.00
60489;BME280;46331;49.252;8.904;2023-11-19T02:42:20;99547.09;;;7.58;100.00
60489;BME280;46331;49.252;8.904;2023-11-19T02:43:00;99544.22;;;7.59;100.00
60489;BME280;46331;49.252;8.904;2023-11-19T02:43:44;99533.00;;;7.64;100.00
60489;BME280;46331;49.252;8.904;2023-11-19T02:44:25;99530.97;;;7.66;100.00
60489;BME280;46331;49.252;8.904;2023-11-19T02:45:09;99528.22;;;7.73;100.00
60489;BME280;46331;49.252;8.904;2023-11-19T02:45:54;99530.97;;;7.66;100.00
60489;BME280;46331;49.252;8.904;2023-11-19T02:46:36;99530.38;;;7.64;100.00
60489;BME280;46331;49.252;8.904;2023-11-19T02:47:16;99530.06;;;7.72;100.00
60489;BME280;46331;49.252;8.904;2023-11-19T02:47:57;99535.94;;;7.74;100.00
60489;BME280;46331;49.252;8.904;2023-11-19T02:48:37;99532.84;;;7.77;100.00
60489;BME280;46331;49.252;8.904;2023-11-19T02:49:20;99524.69;;;7.79;100.00
60489;BME280;46331;49.252;8.904;2023-11-19T02:50:01;99511.94;;;7.76;100.00
60489;BME280;46331;49.252;8.904;2023-11-19T02:50:42;99513.78;;;7.75;100.00
60489;BME280;46331;49.252;8.904;2023-11-19T02:51:23;99516.06;;;7.72;100.00
60489;BME280;46331;49.252;8.904;2023-11-19T02:52:04;99515.25;;;7.71;100.00
60489;BME280;46331;49.252;8.904;2023-11-19T02:52:46;99511.16;;;7.75;100.00
60489;BME280;46331;49.252;8.904;2023-11-19T02:53:26;99510.56;;;7.73;100.00
60489;BME280;46331;49.252;8.904;2023-11-19T02:54:09;99514.09;;;7.67;100.00
60489;BME280;46331;49.252;8.904;2023-11-19T02:54:50;99510.06;;;7.64;100.00
60489;BME280;46331;49.252;8.904;2023-11-19T02:55:31;99502.28;;;7.69;100.00
60489;BME280;46331;49.252;8.904;2023-11-19T02:56:17;99499.19;;;7.73;100.00
60489;BME280;46331;49.252;8.904;2023-11-19T02:57:06;99500.22;;;7.72;100.00
60489;BME280;46331;49.252;8.904;2023-11-19T02:57:49;99498.63;;;7.70;100.00
60489;BME280;46331;49.252;8.904;2023-11-19T02:58:30;99497.97;;;7.75;100.00
60489;BME280;46331;49.252;8.904;2023-11-19T02:59:11;99491.63;;;7.76;100.00
60489;BME280;46331;49.252;8.904;2023-11-19T03:00:07;99490.59;;;7.77;100.00
60489;BME280;46331;49.252;8.904;2023-11-19T03:00:52;99495.22;;;7.82;100.00
60489;BME280;46331;49.252;8.904;2023-11-19T03:01:37;99491.78;;;7.81;100.00
60489;BME280;46331;49.252;8.904;2023-11-19T03:02:23;99491.56;;;7.83;100.00
60489;BME280;46331;49.252;8.904;2023-11-19T03:03:14;99490.06;;;7.87;100.00
60489;BME280;46331;49.252;8.904;2023-11-19T03:04:06;99499.59;;;7.88;100.00
60489;BME280;46331;49.252;8.904;2023-11-19T03:04:50;99499.59;;;7.88;100.00
60489;BME280;46331;49.252;8.904;2023-11-19T03:05:31;99496.16;;;7.87;100.00
60489;BME280;46331;49.252;8.904;2023-11-19T03:06:11;99496.72;;;7.90;100.00
60489;BME280;46331;49.252;8.904;2023-11-19T03:06:52;99494.09;;;7.90;100.00
60489;BME280;46331;49.252;8.904;2023-11-19T03:07:33;99488.38;;;7.93;100.00
60489;BME280;46331;49.252;8.904;2023-11-19T03:08:15;99492.16;;;7.97;100.00
60489;BME280;46331;49.252;8.904;2023-11-19T03:08:56;99495.16;;;8.00;100.00
60489;BME280;46331;49.252;8.904;2023-11-19T03:09:37;99490.47;;;8.02;100.00
60489;BME280;46331;49.252;8.904;2023-11-19T03:10:20;99496.56;;;8.03;100.00
60489;BME280;46331;49.252;8.904;2023-11-19T03:11:01;99495.38;;;7.99;100.00
60489;BME280;46331;49.252;8.904;2023-11-19T03:11:42;99497.56;;;8.02;100.00
60489;BME280;46331;49.252;8.904;2023-11-19T03:12:22;99496.22;;;7.99;100.00
60489;BME280;46331;49.252;8.904;2023-11-19T03:13:03;99504.13;;;7.99;100.00
60489;BME280;46331;49.252;8.904;2023-11-19T03:13:43;99502.72;;;7.97;100.00
60489;BME280;46331;49.252;8.904;2023-11-19T03:14:24;99503.53;;;7.97;100.00
60489;BME280;46331;49.252;8.904;2023-11-19T03:15:05;99500.31;;;7.95;100.00
60489;BME280;46331;49.252;8.904;2023-11-19T03:15:46;99496.66;;;7.96;100.00
60489;BME280;46331;49.252;8.904;2023-11-19T03:16:26;99489.31;;;7.98;100.00
60489;BME280;46331;49.252;8.904;2023-11-19T03:17:07;99490.31;;;7.97;100.00
60489;BME280;46331;49.252;8.904;2023-11-19T03:17:50;99489.66;;;8.02;100.00
60489;BME280;46331;49.252;8.904;2023-11-19T03:18:30;99477.34;;;7.96;100.00
60489;BME280;46331;49.252;8.904;2023-11-19T03:19:11;99485.41;;;8.01;100.00
60489;BME280;46331;49.252;8.904;2023-11-19T03:19:51;99485.41;;;8.01;100.00
60489;BME280;46331;49.252;8.904;2023-11-19T03:20:32;99481.50;;;8.03;100.00
60489;BME280;46331;49.252;8.904;2023-11-19T03:21:12;99492.06;;;8.03;100.00
60489;BME280;46331;49.252;8.904;2023-11-19T03:21:54;99488.84;;;8.01;100.00
60489;BME280;46331;49.252;8.904;2023-11-19T03:22:36;99486.72;;;8.10;100.00
60489;BME280;46331;49.252;8.904;2023-11-19T03:23:17;99489.91;;;8.12;100.00
60489;BME280;46331;49.252;8.904;2023-11-19T03:23:58;99486.03;;;8.15;100.00
60489;BME280;46331;49.252;8.904;2023-11-19T03:24:41;99482.44;;;8.09;100.00
60489;BME280;46331;49.252;8.904;2023-11-19T03:25:21;99486.25;;;8.13;100.00
60489;BME280;46331;49.252;8.904;2023-11-19T03:26:02;99488.78;;;8.20;100.00
60489;BME280;46331;49.252;8.904;2023-11-19T03:26:49;99481.91;;;8.31;100.00
60489;BME280;46331;49.252;8.904;2023-11-19T03:27:32;99475.94;;;8.35;100.00
60489;BME280;46331;49.252;8.904;2023-11-19T03:28:14;99477.31;;;8.38;100.00
60489;BME280;46331;49.252;8.904;2023-11-19T03:28:55;99469.66;;;8.48;100.00
60489;BME280;46331;49.252;8.904;2023-11-19T03:29:37;99466.91;;;8.55;100.00
60489;BME280;46331;49.252;8.904;2023-11-19T03:30:18;99469.53;;;8.67;100.00
60489;BME280;46331;49.252;8.904;2023-11-19T03:31:04;99468.50;;;8.80;100.00
60489;BME280;46331;49.252;8.904;2023-11-19T03:31:44;99465.72;;;8.86;100.00
60489;BME280;46331;49.252;8.904;2023-11-19T03:32:25;99467.00;;;8.95;100.00
60489;BME280;46331;49.252;8.904;2023-11-19T03:33:06;99473.75;;;9.03;100.00
60489;BME280;46331;49.252;8.904;2023-11-19T03:33:46;99465.34;;;9.06;100.00
60489;BME280;46331;49.252;8.904;2023-11-19T03:34:27;99472.34;;;9.12;100.00
60489;BME280;46331;49.252;8.904;2023-11-19T03:35:07;99468.31;;;9.22;100.00
60489;BME280;46331;49.252;8.904;2023-11-19T03:35:49;99474.84;;;9.31;100.00
60489;BME280;46331;49.252;8.904;2023-11-19T03:36:32;99467.66;;;9.43;100.00
60489;BME280;46331;49.252;8.904;2023-11-19T03:37:13;99475.81;;;9.54;100.00
60489;BME280;46331;49.252;8.904;2023-11-19T03:37:57;99465.88;;;9.61;100.00
60489;BME280;46331;49.252;8.904;2023-11-19T03:38:38;99468.38;;;9.68;100.00
60489;BME280;46331;49.252;8.904;2023-11-19T03:39:19;99456.25;;;9.72;100.00
60489;BME280;46331;49.252;8.904;2023-11-19T03:39:59;99460.53;;;9.73;100.00
60489;BME280;46331;49.252;8.904;2023-11-19T03:40:40;99451.72;;;9.84;100.00